createdAt,value
2022-11-10T00:03:54.115Z,98832.81
2022-11-10T00:09:21.585Z,98838.94
2022-11-10T00:14:57.697Z,98847.53
2022-11-10T00:20:21.161Z,98856.72
2022-11-10T00:25:47.714Z,98855.91
2022-11-10T00:31:12.362Z,98855.78
2022-11-10T00:36:37.154Z,98860.72
2022-11-10T00:42:03.387Z,98866.44
2022-11-10T00:47:27.034Z,98877.03
2022-11-10T00:52:50.447Z,98880.97
2022-11-10T00:58:16.344Z,98883.72
2022-11-10T01:03:40.590Z,98883.03
2022-11-10T01:09:03.826Z,98885.03
2022-11-10T01:14:30.071Z,98891.84
2022-11-10T01:19:53.697Z,98902.69
2022-11-10T01:25:17.710Z,98911.16
2022-11-10T01:30:44.296Z,98910.56
2022-11-10T01:36:09.900Z,98917.78
2022-11-10T01:41:33.390Z,98924.56
2022-11-10T01:47:01.178Z,98919.25
2022-11-10T01:52:25.302Z,98932.47
2022-11-10T01:57:49.257Z,98941.94
2022-11-10T02:03:19.834Z,98939.75
2022-11-10T02:08:48.122Z,98937.59
2022-11-10T02:14:12.546Z,98941.13
2022-11-10T02:19:43.880Z,98948.22
2022-11-10T02:25:12.040Z,98941.53
2022-11-10T02:30:35.574Z,98948.84
2022-11-10T02:35:59.421Z,98941.94
2022-11-10T02:41:25.661Z,98963.03
2022-11-10T02:46:49.961Z,98969.00
2022-11-10T02:52:14.122Z,98985.06
2022-11-10T02:57:41.991Z,99008.22
2022-11-10T03:03:06.893Z,99010.16
2022-11-10T03:08:30.194Z,99018.09
2022-11-10T03:14:02.085Z,99024.88
2022-11-10T03:19:26.251Z,99031.69
2022-11-10T03:24:49.653Z,99042.41
2022-11-10T03:30:16.698Z,99047.22
2022-11-10T03:35:40.597Z,99046.13
2022-11-10T03:41:18.726Z,99065.72
2022-11-10T03:46:50.334Z,99059.28
2022-11-10T03:52:15.081Z,99071.03
2022-11-10T03:57:38.930Z,99067.63
2022-11-10T04:03:05.660Z,99079.88
2022-11-10T04:08:50.619Z,99078.59
2022-11-10T04:14:35.336Z,99106.34
2022-11-10T04:20:03.189Z,99106.09
2022-11-10T04:25:29.564Z,99109.84
2022-11-10T04:30:53.135Z,99115.59
2022-11-10T04:36:20.754Z,99122.00
2022-11-10T04:41:44.598Z,99122.63
2022-11-10T04:47:11.924Z,99136.75
2022-11-10T04:52:38.379Z,99142.50
2022-11-10T04:58:01.811Z,99141.50
2022-11-10T05:03:26.704Z,99151.66
2022-11-10T05:08:53.803Z,99167.72
2022-11-10T05:14:17.386Z,99168.66
2022-11-10T05:19:41.557Z,99173.63
2022-11-10T05:25:08.599Z,99179.88
2022-11-10T05:30:32.153Z,99189.16
2022-11-10T05:35:56.116Z,99202.72
2022-11-10T05:41:22.594Z,99192.53
2022-11-10T05:46:46.739Z,99203.38
2022-11-10T05:52:11.146Z,99208.06
2022-11-10T05:57:37.595Z,99211.28
2022-11-10T06:03:03.166Z,99222.66
2022-11-10T06:08:26.573Z,99236.84
2022-11-10T06:13:52.692Z,99249.47
2022-11-10T06:19:18.624Z,99257.22
2022-11-10T06:24:43.341Z,99273.19
2022-11-10T06:30:15.954Z,99283.31
2022-11-10T06:35:41.060Z,99302.94
2022-11-10T06:41:05.005Z,99318.09
2022-11-10T06:46:31.241Z,99330.53
2022-11-10T06:52:10.485Z,99341.22
2022-11-10T06:57:44.701Z,99355.31
2022-11-10T07:03:15.270Z,99358.94
2022-11-10T07:08:39.071Z,99363.38
2022-11-10T07:14:03.169Z,99388.16
2022-11-10T07:19:32.507Z,99399.00
2022-11-10T07:24:59.683Z,99411.47
2022-11-10T07:30:23.177Z,99418.66
2022-11-10T07:35:55.468Z,99430.34
2022-11-10T07:41:19.533Z,99432.16
2022-11-10T07:46:43.215Z,99445.66
2022-11-10T07:52:11.946Z,99451.78
2022-11-10T07:57:39.331Z,99463.28
2022-11-10T08:03:07.368Z,99472.50
2022-11-10T08:08:38.687Z,99472.19
2022-11-10T08:14:02.151Z,99484.34
2022-11-10T08:19:26.189Z,99491.50
2022-11-10T08:24:54.577Z,99497.44
2022-11-10T08:30:19.483Z,99503.50
2022-11-10T08:35:48.253Z,99509.81
2022-11-10T08:41:16.083Z,99528.59
2022-11-10T08:46:39.996Z,99527.00
2022-11-10T08:52:03.764Z,99538.22
2022-11-10T08:57:31.699Z,99542.25
2022-11-10T09:03:01.634Z,99548.06
2022-11-10T09:08:34.015Z,99560.53
2022-11-10T09:14:09.157Z,99563.22
2022-11-10T09:19:40.157Z,99581.22
2022-11-10T09:25:09.246Z,99578.75
2022-11-10T09:30:35.665Z,99584.69
2022-11-10T09:36:04.044Z,99597.03
2022-11-10T09:41:30.157Z,99591.53
2022-11-10T09:47:03.556Z,99603.75
2022-11-10T09:52:30.285Z,99615.53
2022-11-10T09:57:59.005Z,99618.50
2022-11-10T10:03:34.972Z,99619.28
2022-11-10T10:09:07.498Z,99619.50
2022-11-10T10:14:43.318Z,99627.41
2022-11-10T10:20:20.049Z,99625.50
2022-11-10T10:25:46.397Z,99632.09
2022-11-10T10:31:20.048Z,99625.38
2022-11-10T10:36:47.237Z,99629.66
2022-11-10T10:42:21.372Z,99629.25
2022-11-10T10:47:47.221Z,99623.78
2022-11-10T10:53:20.056Z,99616.41
2022-11-10T10:58:56.017Z,99635.22
2022-11-10T11:04:34.322Z,99627.47
2022-11-10T11:10:41.614Z,99621.13
2022-11-10T11:16:27.061Z,99626.31
2022-11-10T11:22:11.877Z,99634.88
2022-11-10T11:27:49.208Z,99631.28
2022-11-10T11:33:22.548Z,99639.44
2022-11-10T11:38:57.301Z,99650.75
2022-11-10T11:44:45.589Z,99646.47
2022-11-10T11:50:23.711Z,99652.09
2022-11-10T11:56:03.092Z,99652.31
2022-11-10T12:01:49.684Z,99652.41
2022-11-10T12:07:44.077Z,99650.53
2022-11-10T12:14:01.732Z,99659.44
2022-11-10T12:19:39.281Z,99666.16
2022-11-10T12:25:20.773Z,99666.34
2022-11-10T12:30:46.210Z,99664.81
2022-11-10T12:36:17.685Z,99679.53
2022-11-10T12:41:49.721Z,99675.59
2022-11-10T12:47:22.186Z,99681.41
2022-11-10T12:52:54.976Z,99675.22
2022-11-10T12:58:22.191Z,99668.88
2022-11-10T13:03:59.951Z,99690.34
2022-11-10T13:09:34.364Z,99681.84
2022-11-10T13:14:59.001Z,99685.16
2022-11-10T13:20:48.967Z,99687.13
2022-11-10T13:26:43.383Z,99692.19
2022-11-10T13:32:36.697Z,99701.88
2022-11-10T13:38:02.485Z,99694.81
2022-11-10T13:43:28.719Z,99711.97
2022-11-10T13:49:25.464Z,99714.56
2022-11-10T13:55:15.984Z,99728.53
2022-11-10T14:00:41.308Z,99732.22
2022-11-10T14:06:18.966Z,99745.19
2022-11-10T14:11:50.275Z,99732.50
2022-11-10T14:17:22.163Z,99744.56
2022-11-10T14:22:51.181Z,99755.28
2022-11-10T14:28:29.020Z,99758.16
2022-11-10T14:33:57.670Z,99774.78
2022-11-10T14:39:31.043Z,99774.19
2022-11-10T14:45:09.605Z,99783.00
2022-11-10T14:50:35.685Z,99786.66
2022-11-10T14:56:07.466Z,99789.78
2022-11-10T15:01:35.263Z,99788.19
2022-11-10T15:07:00.660Z,99790.06
2022-11-10T15:12:30.658Z,99802.16
2022-11-10T15:17:54.955Z,99818.03
2022-11-10T15:23:30.522Z,99809.72
2022-11-10T15:28:59.236Z,99825.75
2022-11-10T15:34:42.155Z,99830.38
2022-11-10T15:40:39.802Z,99835.44
2022-11-10T15:46:17.908Z,99851.25
2022-11-10T15:51:43.553Z,99855.19
2022-11-10T15:57:07.292Z,99858.44
2022-11-10T16:02:34.837Z,99864.06
2022-11-10T16:07:59.817Z,99870.38
2022-11-10T16:13:28.880Z,99879.03
2022-11-10T16:18:55.736Z,99874.38
2022-11-10T16:24:20.581Z,99897.19
2022-11-10T16:29:47.090Z,99905.88
2022-11-10T16:35:18.082Z,99912.59
2022-11-10T16:40:43.390Z,99929.22
2022-11-10T16:46:16.880Z,99936.56
2022-11-10T16:51:48.802Z,99937.28
2022-11-10T16:57:15.804Z,99935.59
2022-11-10T17:02:40.487Z,99944.41
2022-11-10T17:08:07.288Z,99943.28
2022-11-10T17:13:32.942Z,99948.81
2022-11-10T17:18:59.299Z,99949.16
2022-11-10T17:24:26.783Z,99947.09
2022-11-10T17:30:01.558Z,99955.13
2022-11-10T17:35:26.923Z,99960.81
2022-11-10T17:40:54.272Z,99976.53
2022-11-10T17:46:20.844Z,99969.03
2022-11-10T17:51:45.986Z,99964.88
2022-11-10T17:57:15.573Z,99993.66
2022-11-10T18:02:39.377Z,99977.97
2022-11-10T18:08:04.193Z,99983.06
2022-11-10T18:13:30.943Z,99984.47
2022-11-10T18:18:54.673Z,99989.78
2022-11-10T18:24:19.311Z,99991.34
2022-11-10T18:29:48.810Z,100001.78
2022-11-10T18:35:12.809Z,100014.84
2022-11-10T18:40:41.584Z,100013.50
2022-11-10T18:46:08.340Z,100023.63
2022-11-10T18:51:33.809Z,100016.19
2022-11-10T18:56:58.900Z,100028.69
2022-11-10T19:02:25.672Z,100017.78
2022-11-10T19:07:49.960Z,100025.25
2022-11-10T19:13:19.699Z,100033.50
2022-11-10T19:18:46.854Z,100032.41
2022-11-10T19:24:27.161Z,100035.91
2022-11-10T19:29:53.911Z,100036.69
2022-11-10T19:35:22.085Z,100039.09
2022-11-10T19:40:48.225Z,100043.34
2022-11-10T19:46:16.206Z,100025.53
2022-11-10T19:51:43.997Z,100036.44
2022-11-10T19:57:10.529Z,100035.94
2022-11-10T20:02:45.170Z,100059.31
2022-11-10T20:08:15.641Z,100072.09
2022-11-10T20:13:39.982Z,100061.72
2022-11-10T20:19:03.978Z,100073.97
2022-11-10T20:24:31.048Z,100075.28
2022-11-10T20:29:54.616Z,100086.97
2022-11-10T20:35:18.216Z,100104.44
2022-11-10T20:40:45.358Z,100110.34
2022-11-10T20:46:16.130Z,100105.84
2022-11-10T20:51:46.969Z,100093.09
2022-11-10T20:57:13.484Z,100079.53
2022-11-10T21:02:37.118Z,100083.53
2022-11-10T21:08:00.911Z,100074.75
2022-11-10T21:13:28.457Z,100081.59
2022-11-10T21:18:51.789Z,100085.44
2022-11-10T21:24:15.261Z,100085.31
2022-11-10T21:29:42.446Z,100081.31
2022-11-10T21:35:09.902Z,100085.56
2022-11-10T21:40:34.524Z,100088.13
2022-11-10T21:46:07.443Z,100100.78
2022-11-10T21:51:32.802Z,100105.81
2022-11-10T21:56:57.925Z,100108.69
2022-11-10T22:02:24.411Z,100115.34
2022-11-10T22:07:48.016Z,100112.94
2022-11-10T22:13:30.484Z,100106.41
2022-11-10T22:19:01.275Z,100110.63
2022-11-10T22:24:27.494Z,100124.50
2022-11-10T22:29:53.218Z,100148.56
2022-11-10T22:35:33.077Z,100152.31
2022-11-10T22:41:12.890Z,100144.38
2022-11-10T22:46:38.646Z,100148.38
2022-11-10T22:52:05.051Z,100142.56
2022-11-10T22:57:28.538Z,100134.06
2022-11-10T23:02:54.770Z,100143.59
2022-11-10T23:08:21.269Z,100140.06
2022-11-10T23:13:45.568Z,100142.72
2022-11-10T23:19:10.256Z,100148.03
2022-11-10T23:24:36.619Z,100133.13
2022-11-10T23:30:01.597Z,100127.25
2022-11-10T23:35:25.475Z,100127.97
2022-11-10T23:40:51.934Z,100144.03
2022-11-10T23:46:15.738Z,100150.69
2022-11-10T23:51:39.117Z,100148.25
2022-11-10T23:57:06.691Z,100149.53
